Time;durP1;ratioP1;P1;durP2;ratioP2;P2;SDS_P1;SDS_P2;PMS_P1;PMS_P2;Temp;Humidity;BMP_temperature;BMP_pressure;BME280_temperature;BME280_humidity;BME280_pressure;Samples;Min_cycle;Max_cycle;Signal;HPM_P1;HPM_P2
2021/10/04 00:00:52;;;;;;;21.65;19.27;;;26.80;99.90;;;;;;1994189;69;21191;-87
2021/10/04 00:06:16;;;;;;;27.20;19.25;;;26.80;99.90;;;;;;1980191;69;21130;-87
2021/10/04 00:08:47;;;;;;;24.52;18.57;;;26.80;99.90;;;;;;1972266;69;21581;-79
2021/10/04 00:11:18;;;;;;;23.40;20.05;;;26.80;99.90;;;;;;1990790;69;21678;-78
2021/10/04 00:14:09;;;;;;;21.15;17.55;;;26.90;99.90;;;;;;1986982;69;21091;-78
2021/10/04 00:16:40;;;;;;;22.37;16.80;;;26.90;99.90;;;;;;1978980;69;21061;-78
2021/10/04 00:19:11;;;;;;;24.72;17.30;;;26.90;99.90;;;;;;1985745;69;21100;-79
2021/10/04 00:21:42;;;;;;;22.60;17.70;;;27.00;99.90;;;;;;1930335;70;21087;-76
2021/10/04 00:24:13;;;;;;;23.73;17.50;;;27.00;99.90;;;;;;1988983;72;21531;-74
2021/10/04 00:26:44;;;;;;;18.82;15.35;;;27.00;99.90;;;;;;1989111;72;21533;-75
2021/10/04 00:29:17;;;;;;;19.57;16.80;;;27.10;99.90;;;;;;1988628;72;21034;-75
2021/10/04 00:31:49;;;;;;;19.05;15.00;;;27.10;99.90;;;;;;1988510;72;21592;-77
2021/10/04 00:34:19;;;;;;;16.55;14.35;;;27.10;99.90;;;;;;1988849;72;21062;-77
2021/10/04 00:36:51;;;;;;;18.87;14.60;;;27.20;99.90;;;;;;1988965;72;21070;-77
2021/10/04 00:39:21;;;;;;;20.35;15.23;;;27.20;99.90;;;;;;1988698;72;21602;-78
2021/10/04 00:41:52;;;;;;;17.32;15.28;;;27.20;99.90;;;;;;1988932;72;21181;-75
2021/10/04 00:44:22;;;;;;;18.55;15.43;;;27.30;99.90;;;;;;1988708;72;21129;-78
2021/10/04 00:46:54;;;;;;;20.15;15.88;;;27.30;99.90;;;;;;1988932;72;21155;-75
2021/10/04 00:49:25;;;;;;;19.77;15.00;;;27.30;99.90;;;;;;1988659;72;21062;-75
2021/10/04 00:51:56;;;;;;;19.45;13.72;;;27.40;99.90;;;;;;1988799;72;21548;-76
2021/10/04 00:54:27;;;;;;;16.12;13.75;;;27.50;99.90;;;;;;1988955;72;21564;-75
2021/10/04 00:56:58;;;;;;;18.23;14.85;;;27.50;99.90;;;;;;1982077;72;21861;-75
2021/10/04 00:59:29;;;;;;;16.12;13.08;;;27.60;99.90;;;;;;2003827;71;21103;-76
2021/10/04 01:02:00;;;;;;;19.02;12.73;;;27.60;99.90;;;;;;2025361;71;21134;-75
2021/10/04 01:04:31;;;;;;;14.80;11.85;;;27.70;99.90;;;;;;1994843;71;21182;-75
2021/10/04 01:07:02;;;;;;;18.75;12.93;;;27.70;99.90;;;;;;1982822;72;21030;-76
2021/10/04 01:09:33;;;;;;;17.87;13.30;;;27.80;99.90;;;;;;1976366;70;21117;-76
2021/10/04 01:12:05;;;;;;;17.70;12.88;;;27.80;99.90;;;;;;1993014;71;21088;-75
2021/10/04 01:14:36;;;;;;;18.87;14.25;;;27.80;99.90;;;;;;2022861;71;21021;-75
2021/10/04 01:17:07;;;;;;;15.00;12.40;;;27.90;99.90;;;;;;2025391;71;21168;-76
2021/10/04 01:19:41;;;;;;;12.75;10.93;;;27.90;99.90;;;;;;2022326;70;21508;-75
2021/10/04 01:22:12;;;;;;;14.07;12.10;;;28.00;99.90;;;;;;2022053;71;21122;-76
2021/10/04 01:24:43;;;;;;;15.60;11.88;;;28.00;99.90;;;;;;1966390;71;21052;-75
2021/10/04 01:27:14;;;;;;;14.30;11.68;;;28.00;99.90;;;;;;2022106;71;21053;-77
2021/10/04 01:29:45;;;;;;;12.95;9.23;;;28.10;99.60;;;;;;2001707;71;21525;-76
2021/10/04 01:32:15;;;;;;;11.08;9.35;;;28.10;99.80;;;;;;1984426;72;22385;-75
2021/10/04 01:34:47;;;;;;;16.75;11.33;;;28.20;99.00;;;;;;1943131;73;21100;-77
2021/10/04 01:37:20;;;;;;;10.88;8.88;;;28.20;98.90;;;;;;1959572;73;21120;-79
2021/10/04 01:39:50;;;;;;;12.75;7.67;;;28.30;98.60;;;;;;1961880;72;21103;-78
2021/10/04 01:42:22;;;;;;;10.13;8.00;;;28.30;98.40;;;;;;1944968;74;21512;-77
2021/10/04 01:44:53;;;;;;;10.90;7.78;;;28.30;98.20;;;;;;1971083;73;21128;-75
2021/10/04 01:47:27;;;;;;;13.58;9.00;;;28.40;97.90;;;;;;1945308;74;21590;-80
2021/10/04 01:49:58;;;;;;;10.60;8.43;;;28.40;97.80;;;;;;1971003;73;21174;-77
2021/10/04 01:52:29;;;;;;;11.97;7.22;;;28.40;97.90;;;;;;1941342;73;21643;-77
2021/10/04 01:55:00;;;;;;;9.63;7.10;;;28.50;97.10;;;;;;2013443;71;21052;-76
2021/10/04 01:57:31;;;;;;;12.98;6.97;;;28.50;96.80;;;;;;1952681;72;21500;-76
2021/10/04 02:00:03;;;;;;;11.28;7.20;;;28.60;96.90;;;;;;1996373;69;21114;-75
2021/10/04 02:02:35;;;;;;;9.68;6.97;;;28.70;97.00;;;;;;2005280;71;21021;-75
2021/10/04 02:05:07;;;;;;;12.03;7.97;;;28.70;96.50;;;;;;1986972;72;21037;-74
2021/10/04 02:07:38;;;;;;;10.08;7.67;;;28.80;96.40;;;;;;1987062;72;21177;-77
2021/10/04 02:10:11;;;;;;;9.10;6.70;;;28.90;96.20;;;;;;1987806;72;21100;-76
2021/10/04 02:12:43;;;;;;;10.70;7.50;;;29.00;95.80;;;;;;1988732;72;21134;-76
2021/10/04 02:15:14;;;;;;;10.63;7.87;;;29.00;96.00;;;;;;1938623;74;21074;-77
2021/10/04 02:17:46;;;;;;;7.55;5.83;;;29.10;95.60;;;;;;1986586;72;21564;-76
2021/10/04 02:20:19;;;;;;;9.23;6.03;;;29.10;95.10;;;;;;1988673;72;21220;-76
2021/10/04 02:22:51;;;;;;;9.85;6.03;;;29.20;95.60;;;;;;1936623;74;21630;-74
2021/10/04 02:25:23;;;;;;;10.08;6.78;;;29.20;95.20;;;;;;1994823;71;21092;-75
2021/10/04 02:27:54;;;;;;;7.53;6.33;;;29.30;95.00;;;;;;2008704;71;21100;-76
2021/10/04 02:30:27;;;;;;;8.95;6.05;;;29.40;95.10;;;;;;2022130;71;21045;-76
2021/10/04 02:33:05;;;;;;;7.80;5.92;;;29.50;95.00;;;;;;2021993;71;21057;-75
2021/10/04 02:35:36;;;;;;;7.85;5.60;;;29.50;95.40;;;;;;2021877;71;21049;-75
2021/10/04 02:38:08;;;;;;;8.48;5.37;;;29.60;94.50;;;;;;2021783;71;21033;-74
2021/10/04 02:40:41;;;;;;;7.55;4.85;;;29.70;94.50;;;;;;1996364;71;21150;-77
2021/10/04 02:43:18;;;;;;;7.10;4.87;;;29.80;94.60;;;;;;1962907;72;21077;-77
2021/10/04 02:45:49;;;;;;;6.22;4.65;;;29.90;93.40;;;;;;1983597;72;21794;-76
2021/10/04 02:48:28;;;;;;;6.47;4.95;;;30.00;93.50;;;;;;1985531;71;21054;-74
2021/10/04 02:50:57;;;;;;;6.92;4.65;;;30.10;93.10;;;;;;1972091;72;21122;-74
2021/10/04 02:53:28;;;;;;;7.33;4.90;;;30.30;93.20;;;;;;1961299;72;21112;-75
2021/10/04 02:55:59;;;;;;;6.92;4.97;;;30.30;93.10;;;;;;1955970;72;21056;-76
2021/10/04 02:58:29;;;;;;;6.03;4.40;;;30.40;92.80;;;;;;1953706;73;21114;-76
2021/10/04 03:01:02;;;;;;;9.18;4.28;;;30.50;92.40;;;;;;1953878;73;21553;-76
2021/10/04 03:03:33;;;;;;;6.72;3.92;;;30.60;92.10;;;;;;1954051;73;21065;-75
2021/10/04 03:06:04;;;;;;;5.80;3.75;;;30.70;91.80;;;;;;1953861;73;21143;-76
2021/10/04 03:08:34;;;;;;;7.40;4.30;;;30.80;92.90;;;;;;1953496;73;21127;-75
2021/10/04 03:11:06;;;;;;;5.42;4.12;;;30.80;91.70;;;;;;1953662;73;21570;-76
2021/10/04 03:13:37;;;;;;;4.78;3.92;;;30.90;91.30;;;;;;1953622;73;21587;-76
2021/10/04 03:16:09;;;;;;;5.55;3.98;;;31.00;91.00;;;;;;1953429;72;21163;-76
2021/10/04 03:18:40;;;;;;;7.17;4.42;;;31.10;90.90;;;;;;1953608;73;21507;-76
2021/10/04 03:21:11;;;;;;;7.05;3.92;;;31.20;90.80;;;;;;1953691;73;21136;-75
2021/10/04 03:23:42;;;;;;;6.37;3.67;;;31.30;91.00;;;;;;1960682;72;21639;-76
2021/10/04 03:26:14;;;;;;;5.47;3.77;;;31.30;90.40;;;;;;1993728;71;21044;-75
2021/10/04 03:28:45;;;;;;;5.17;3.90;;;31.40;90.00;;;;;;2025264;71;21111;-75
2021/10/04 03:31:16;;;;;;;7.30;3.67;;;31.50;90.40;;;;;;1964409;72;21064;-75
2021/10/04 03:33:47;;;;;;;5.30;3.55;;;31.60;90.70;;;;;;1988286;72;21123;-75
2021/10/04 03:36:17;;;;;;;5.45;3.67;;;31.70;90.00;;;;;;1988796;72;21121;-75
2021/10/04 03:38:48;;;;;;;6.47;3.72;;;;;;;;;;1988520;72;21109;-76
2021/10/04 03:41:19;;;;;;;5.03;3.62;;;31.90;89.20;;;;;;1988559;72;21140;-76
2021/10/04 03:43:49;;;;;;;6.58;3.62;;;31.90;88.80;;;;;;1978351;72;21137;-76
2021/10/04 03:46:20;;;;;;;4.60;3.30;;;32.00;87.60;;;;;;1968002;72;21525;-76
2021/10/04 03:48:51;;;;;;;4.78;3.60;;;32.10;84.60;;;;;;1967808;73;21150;-77
2021/10/04 03:51:23;;;;;;;4.75;3.45;;;32.10;85.60;;;;;;1975146;72;21106;-77
2021/10/04 03:53:54;;;;;;;5.72;3.42;;;32.10;85.90;;;;;;1977802;72;21097;-76
2021/10/04 03:56:25;;;;;;;5.35;3.55;;;32.20;84.60;;;;;;1967180;72;21151;-75
2021/10/04 03:58:56;;;;;;;6.03;3.52;;;32.30;85.10;;;;;;1977144;72;21063;-76
2021/10/04 04:01:28;;;;;;;7.65;3.90;;;32.40;84.30;;;;;;1978221;72;21062;-76
2021/10/04 04:04:02;;;;;;;7.37;4.00;;;32.30;83.60;;;;;;1981996;72;21120;-76
2021/10/04 04:06:33;;;;;;;5.15;3.60;;;32.40;80.70;;;;;;1964586;73;21061;-76
2021/10/04 04:09:04;;;;;;;10.10;3.75;;;32.40;82.30;;;;;;2018050;70;21128;-77
2021/10/04 04:11:34;;;;;;;10.55;4.30;;;32.40;82.20;;;;;;1985725;72;21062;-75
2021/10/04 04:14:05;;;;;;;5.17;3.87;;;32.40;82.30;;;;;;1985873;71;21054;-76
2021/10/04 04:16:36;;;;;;;6.17;3.83;;;32.40;81.30;;;;;;1985446;71;21596;-78
2021/10/04 04:19:07;;;;;;;5.10;3.27;;;32.40;81.70;;;;;;1984944;72;21525;-76
2021/10/04 04:21:40;;;;;;;4.70;3.47;;;32.40;82.20;;;;;;1995941;71;21096;-86
2021/10/04 04:24:16;;;;;;;5.20;3.02;;;32.40;80.40;;;;;;1999238;71;21210;-76
2021/10/04 04:26:46;;;;;;;5.20;3.50;;;32.50;80.90;;;;;;1977746;72;21053;-75
2021/10/04 04:29:16;;;;;;;4.05;3.17;;;32.60;79.80;;;;;;1988931;72;21060;-76
2021/10/04 04:31:47;;;;;;;5.17;3.12;;;;;;;;;;1978195;72;21135;-74
2021/10/04 04:34:18;;;;;;;5.10;3.17;;;32.80;76.80;;;;;;1977547;72;21084;-75
2021/10/04 04:36:49;;;;;;;6.08;3.42;;;32.80;80.20;;;;;;1988625;72;21074;-78
2021/10/04 04:39:21;;;;;;;4.05;2.92;;;32.90;77.80;;;;;;1978016;72;21202;-76
2021/10/04 04:41:52;;;;;;;7.03;3.15;;;32.90;77.20;;;;;;1988890;72;21559;-76
2021/10/04 04:44:23;;;;;;;5.50;3.27;;;32.90;77.60;;;;;;1978148;72;21128;-76
2021/10/04 04:46:55;;;;;;;5.30;3.52;;;32.90;77.30;;;;;;1988784;72;21038;-78
2021/10/04 04:49:26;;;;;;;3.98;2.58;;;32.90;77.90;;;;;;1978301;72;21073;-79
2021/10/04 04:52:02;;;;;;;5.28;3.05;;;32.90;76.40;;;;;;1988634;72;21083;-79
2021/10/04 04:54:33;;;;;;;4.22;2.90;;;33.00;76.10;;;;;;1978367;72;21084;-79
2021/10/04 04:57:04;;;;;;;4.45;2.55;;;33.10;75.30;;;;;;1988858;72;21203;-76
2021/10/04 04:59:35;;;;;;;4.17;2.75;;;33.20;75.60;;;;;;1978272;72;21583;-77
2021/10/04 05:02:06;;;;;;;4.50;2.85;;;33.30;75.20;;;;;;1944196;72;21114;-76
2021/10/04 05:04:37;;;;;;;5.30;3.08;;;33.30;72.90;;;;;;1967611;73;21114;-76
2021/10/04 05:07:07;;;;;;;3.85;2.60;;;33.30;72.70;;;;;;1967927;73;21151;-75
2021/10/04 05:09:38;;;;;;;6.58;2.95;;;33.30;71.80;;;;;;1975166;71;21979;-76
2021/10/04 05:12:09;;;;;;;3.77;2.72;;;33.40;73.70;;;;;;1986329;71;21121;-76
2021/10/04 05:14:40;;;;;;;4.08;2.77;;;33.50;73.50;;;;;;1969776;72;21165;-79
2021/10/04 05:17:11;;;;;;;4.53;2.67;;;33.50;72.70;;;;;;1969598;73;21077;-76
2021/10/04 05:19:42;;;;;;;3.75;2.80;;;33.50;72.30;;;;;;1978705;72;21095;-75
2021/10/04 05:22:13;;;;;;;5.30;3.22;;;33.50;70.40;;;;;;1938128;74;21144;-76
2021/10/04 05:24:44;;;;;;;4.03;2.98;;;33.50;71.80;;;;;;1988722;72;21111;-77
2021/10/04 05:27:17;;;;;;;3.95;2.70;;;33.50;73.90;;;;;;1969674;71;21201;-76
2021/10/04 05:29:48;;;;;;;5.28;2.83;;;33.60;71.80;;;;;;1972898;71;21653;-76
2021/10/04 05:32:20;;;;;;;3.58;2.65;;;33.50;70.80;;;;;;1974693;72;21524;-77
2021/10/04 05:34:53;;;;;;;3.80;2.67;;;33.60;71.10;;;;;;1966764;73;21541;-76
2021/10/04 05:37:24;;;;;;;5.03;2.98;;;33.60;71.00;;;;;;1986162;72;21634;-74
2021/10/04 05:39:55;;;;;;;4.03;2.80;;;33.70;70.70;;;;;;1932581;72;21520;-75
2021/10/04 05:42:31;;;;;;;5.08;3.00;;;33.70;71.40;;;;;;2020472;70;21100;-74
2021/10/04 05:44:58;;;;;;;8.65;3.08;;;33.70;69.80;;;;;;1989519;70;21214;-76
2021/10/04 05:47:28;;;;;;;5.40;2.90;;;33.70;70.70;;;;;;1984546;72;21159;-74
2021/10/04 05:49:59;;;;;;;5.75;2.98;;;33.80;70.50;;;;;;1983853;72;21093;-76
2021/10/04 05:52:30;;;;;;;5.80;2.65;;;33.90;70.80;;;;;;1982549;72;21155;-75
2021/10/04 05:55:01;;;;;;;5.17;2.80;;;33.80;70.70;;;;;;1985047;71;21085;-75
2021/10/04 05:57:32;;;;;;;4.75;3.17;;;33.90;70.50;;;;;;1995205;71;21117;-76
2021/10/04 06:00:05;;;;;;;5.15;3.20;;;33.80;70.10;;;;;;1992268;71;21061;-75
2021/10/04 06:02:36;;;;;;;4.72;2.67;;;33.80;68.80;;;;;;1989483;71;21158;-75
2021/10/04 06:05:09;;;;;;;4.10;2.83;;;33.80;67.90;;;;;;1987951;71;21060;-76
2021/10/04 06:07:40;;;;;;;4.50;2.70;;;33.80;68.90;;;;;;2020798;71;21181;-76
2021/10/04 06:10:11;;;;;;;4.62;3.10;;;33.80;67.80;;;;;;1995716;71;21583;-75
2021/10/04 06:12:42;;;;;;;4.33;3.12;;;33.80;67.10;;;;;;1998874;71;21170;-75
2021/10/04 06:15:14;;;;;;;4.20;2.85;;;33.80;68.20;;;;;;1978990;71;21135;-75
2021/10/04 06:17:45;;;;;;;4.33;2.72;;;33.80;69.00;;;;;;1986062;71;21120;-75
2021/10/04 06:20:16;;;;;;;5.42;3.08;;;33.70;66.90;;;;;;2023875;71;21088;-74
2021/10/04 06:22:48;;;;;;;5.30;3.05;;;33.70;67.40;;;;;;1957814;70;21133;-75
2021/10/04 06:25:20;;;;;;;4.87;2.90;;;33.70;67.90;;;;;;1978728;72;21965;-76
2021/10/04 06:27:54;;;;;;;3.62;2.60;;;33.70;68.10;;;;;;1917618;73;21108;-74
2021/10/04 06:30:24;;;;;;;4.55;3.00;;;33.70;68.10;;;;;;1950759;72;21087;-75
2021/10/04 06:32:55;;;;;;;4.35;2.83;;;33.70;68.20;;;;;;2017598;69;21700;-76
2021/10/04 06:35:30;;;;;;;4.20;2.83;;;33.60;67.80;;;;;;1980605;71;21163;-74
2021/10/04 06:37:58;;;;;;;4.22;2.75;;;33.60;69.50;;;;;;1923827;73;21099;-75
2021/10/04 06:40:29;;;;;;;5.22;3.30;;;33.50;68.90;;;;;;1950532;73;21637;-74
2021/10/04 06:43:00;;;;;;;5.85;3.00;;;33.50;68.90;;;;;;1996261;70;21081;-75
2021/10/04 06:45:32;;;;;;;3.70;2.95;;;33.60;67.50;;;;;;1968626;72;21147;-76
2021/10/04 06:48:03;;;;;;;12.28;3.95;;;33.60;67.70;;;;;;1987909;70;21058;-75
2021/10/04 06:50:34;;;;;;;7.92;3.30;;;33.60;66.40;;;;;;1986821;72;21434;-75
2021/10/04 06:53:05;;;;;;;4.78;3.10;;;33.60;67.20;;;;;;1994977;71;21101;-75
2021/10/04 06:55:36;;;;;;;3.83;2.60;;;33.70;67.80;;;;;;1972591;71;21108;-77
2021/10/04 06:58:06;;;;;;;4.58;2.75;;;33.70;67.70;;;;;;1957589;71;21412;-76
2021/10/04 07:00:37;;;;;;;4.20;2.92;;;33.70;68.20;;;;;;1967428;72;21651;-78
2021/10/04 07:03:08;;;;;;;4.25;3.00;;;33.70;67.90;;;;;;1972594;71;21124;-77
2021/10/04 07:05:42;;;;;;;3.67;3.00;;;33.60;67.60;;;;;;1991470;71;21077;-78
2021/10/04 07:08:12;;;;;;;4.10;3.17;;;33.60;67.80;;;;;;1954300;72;21104;-78
2021/10/04 07:10:43;;;;;;;6.17;3.60;;;33.60;66.70;;;;;;1996027;71;21199;-77
2021/10/04 07:13:14;;;;;;;5.45;3.20;;;33.50;69.30;;;;;;1972015;71;21141;-75
2021/10/04 07:15:44;;;;;;;4.25;3.60;;;33.40;68.20;;;;;;1972773;71;21386;-76
2021/10/04 07:18:16;;;;;;;5.20;3.00;;;33.30;68.30;;;;;;1922523;72;21137;-75
2021/10/04 07:20:47;;;;;;;5.10;3.10;;;33.30;69.30;;;;;;1979505;71;21119;-76
2021/10/04 07:23:18;;;;;;;4.25;3.35;;;33.30;69.60;;;;;;1974170;71;21181;-76
2021/10/04 07:25:49;;;;;;;5.75;3.05;;;33.30;69.00;;;;;;1965486;73;21112;-76
2021/10/04 07:28:20;;;;;;;4.65;3.10;;;33.30;69.90;;;;;;1936982;74;21118;-77
2021/10/04 07:30:51;;;;;;;5.08;3.27;;;33.30;69.00;;;;;;1984640;72;21082;-75
2021/10/04 07:33:22;;;;;;;6.20;3.10;;;33.20;67.70;;;;;;1966100;71;21121;-76
2021/10/04 07:35:55;;;;;;;4.35;3.35;;;33.10;69.50;;;;;;1935851;74;21616;-75
2021/10/04 07:38:26;;;;;;;5.50;3.60;;;33.00;68.90;;;;;;1984617;72;21050;-76
2021/10/04 07:40:58;;;;;;;5.75;4.25;;;32.90;69.30;;;;;;1966660;73;21141;-75
2021/10/04 07:43:29;;;;;;;4.42;3.30;;;32.80;69.70;;;;;;1979935;72;21051;-76
2021/10/04 07:46:02;;;;;;;4.58;3.40;;;32.90;70.20;;;;;;1979790;72;21059;-76
2021/10/04 07:48:33;;;;;;;4.92;3.87;;;32.90;68.90;;;;;;1974289;72;21564;-74
2021/10/04 07:51:07;;;;;;;5.40;3.42;;;33.00;68.90;;;;;;1974539;70;21441;-76
2021/10/04 07:53:39;;;;;;;5.80;3.12;;;33.00;68.10;;;;;;1998274;71;21181;-74
2021/10/04 07:56:09;;;;;;;4.15;3.17;;;33.10;68.30;;;;;;1997694;70;21103;-74
2021/10/04 07:58:40;;;;;;;3.70;3.30;;;33.10;69.00;;;;;;1963862;72;21582;-75
2021/10/04 08:01:13;;;;;;;4.35;3.55;;;33.10;67.20;;;;;;1953546;72;21176;-75
2021/10/04 08:03:44;;;;;;;34.18;9.63;;;33.10;67.30;;;;;;1987624;70;21578;-75
2021/10/04 08:06:15;;;;;;;98.45;19.73;;;33.10;67.70;;;;;;1978478;71;21630;-76
2021/10/04 08:08:48;;;;;;;6.53;3.65;;;33.10;67.10;;;;;;2005565;71;21122;-77
2021/10/04 08:11:19;;;;;;;12.05;4.25;;;33.10;67.90;;;;;;1969214;72;21148;-74
2021/10/04 08:13:52;;;;;;;6.05;3.42;;;33.10;67.70;;;;;;1968257;72;21469;-75
2021/10/04 08:16:23;;;;;;;4.37;3.05;;;33.20;67.60;;;;;;1974060;71;21569;-75
2021/10/04 08:18:55;;;;;;;5.95;3.47;;;33.20;68.50;;;;;;1995636;70;21184;-75
2021/10/04 08:21:26;;;;;;;4.47;3.20;;;33.20;68.10;;;;;;1989709;71;21163;-76
2021/10/04 08:23:59;;;;;;;5.95;3.20;;;33.10;68.20;;;;;;1932281;71;21184;-76
2021/10/04 08:26:30;;;;;;;4.20;3.62;;;33.00;68.50;;;;;;1925934;74;21127;-75
2021/10/04 08:29:01;;;;;;;3.80;2.92;;;33.00;68.90;;;;;;1978029;72;21669;-74
2021/10/04 08:31:33;;;;;;;193.95;31.50;;;33.00;68.50;;;;;;1952567;73;21100;-75
2021/10/04 08:34:06;;;;;;;13.78;4.60;;;33.00;68.10;;;;;;1964445;71;21103;-74
2021/10/04 08:36:37;;;;;;;3.27;2.87;;;32.90;68.30;;;;;;1969769;72;21148;-74
2021/10/04 08:39:08;;;;;;;6.33;3.55;;;32.90;69.50;;;;;;1947997;71;21600;-73
2021/10/04 08:41:39;;;;;;;4.85;3.62;;;32.90;68.20;;;;;;1980412;71;21110;-73
2021/10/04 08:44:12;;;;;;;5.20;3.50;;;32.90;68.50;;;;;;1979713;72;21541;-75
2021/10/04 08:46:46;;;;;;;5.85;3.50;;;32.90;68.70;;;;;;1978954;71;21078;-74
2021/10/04 08:49:19;;;;;;;4.67;3.60;;;32.90;69.00;;;;;;1934098;72;21066;-74
2021/10/04 08:51:53;;;;;;;4.58;3.60;;;32.90;68.30;;;;;;1971395;72;21094;-75
2021/10/04 08:54:26;;;;;;;4.25;3.25;;;32.80;67.60;;;;;;1982995;71;21199;-76
2021/10/04 08:56:56;;;;;;;4.40;3.58;;;32.80;66.60;;;;;;1983670;72;21529;-75
2021/10/04 08:59:28;;;;;;;4.75;3.17;;;32.80;68.00;;;;;;1969557;72;21113;-75
2021/10/04 09:02:01;;;;;;;5.22;3.47;;;32.80;67.30;;;;;;1966590;71;21546;-75
2021/10/04 09:04:32;;;;;;;8.90;4.20;;;32.80;67.10;;;;;;1988427;71;21125;-74
2021/10/04 09:07:02;;;;;;;5.53;4.00;;;32.80;68.10;;;;;;1985246;71;21219;-75
2021/10/04 09:09:33;;;;;;;7.90;3.77;;;32.80;68.20;;;;;;1937587;74;21563;-76
2021/10/04 09:12:05;;;;;;;3.98;3.52;;;32.70;68.00;;;;;;1954026;72;21113;-75
2021/10/04 09:14:36;;;;;;;5.15;3.35;;;32.70;68.30;;;;;;1938831;71;21137;-75
2021/10/04 09:17:08;;;;;;;6.03;3.35;;;32.70;68.00;;;;;;1989852;71;21153;-75
2021/10/04 09:19:41;;;;;;;4.78;3.98;;;32.70;67.80;;;;;;1979720;71;21096;-75
2021/10/04 09:22:15;;;;;;;5.95;3.47;;;32.60;67.80;;;;;;1943596;72;21254;-76
2021/10/04 09:24:48;;;;;;;5.25;3.45;;;32.60;67.40;;;;;;1934728;74;21660;-74
2021/10/04 09:27:21;;;;;;;5.62;3.58;;;32.60;67.90;;;;;;1984044;71;21546;-75
2021/10/04 09:29:53;;;;;;;3.92;3.27;;;32.60;68.00;;;;;;1992296;71;21133;-75
2021/10/04 09:32:27;;;;;;;5.87;3.67;;;32.60;67.50;;;;;;1984098;71;21134;-74
2021/10/04 09:35:00;;;;;;;7.70;4.33;;;32.50;67.20;;;;;;1991656;70;21078;-74
2021/10/04 09:37:31;;;;;;;4.85;3.65;;;32.50;67.90;;;;;;1988082;71;21135;-74
2021/10/04 09:40:04;;;;;;;4.55;3.37;;;32.40;67.30;;;;;;1944204;72;21080;-74
2021/10/04 09:42:37;;;;;;;5.60;3.60;;;32.50;67.60;;;;;;1945340;72;21110;-76
2021/10/04 09:45:08;;;;;;;5.53;3.60;;;32.40;67.80;;;;;;1925544;73;21184;-74
2021/10/04 09:47:42;;;;;;;4.55;3.33;;;32.40;67.40;;;;;;1946700;72;21182;-75
2021/10/04 09:50:13;;;;;;;5.58;3.45;;;32.40;68.20;;;;;;1987679;71;21064;-76
2021/10/04 09:52:46;;;;;;;4.28;3.58;;;32.40;68.20;;;;;;1981155;72;21115;-75
2021/10/04 09:55:20;;;;;;;5.00;3.83;;;32.40;67.50;;;;;;1991816;71;21569;-73
2021/10/04 09:57:53;;;;;;;5.22;3.55;;;32.40;67.70;;;;;;1934541;73;21118;-74
2021/10/04 10:00:24;;;;;;;4.67;3.77;;;32.40;67.40;;;;;;1947361;71;21631;-74
2021/10/04 10:02:56;;;;;;;7.75;4.40;;;32.30;67.60;;;;;;2002537;71;21072;-73
2021/10/04 10:05:29;;;;;;;5.45;4.00;;;32.20;68.00;;;;;;1943456;73;21125;-73
2021/10/04 10:08:01;;;;;;;5.60;4.00;;;32.20;68.50;;;;;;1970806;72;21610;-74
2021/10/04 10:10:34;;;;;;;5.62;4.50;;;32.20;68.90;;;;;;1982077;71;21145;-73
2021/10/04 10:13:06;;;;;;;6.25;5.03;;;32.20;69.20;;;;;;1984276;71;21081;-73
2021/10/04 10:15:39;;;;;;;10.65;5.42;;;32.20;69.60;;;;;;1966005;71;21037;-73
2021/10/04 10:18:12;;;;;;;6.45;5.00;;;32.10;69.80;;;;;;1953671;72;21634;-73
2021/10/04 10:20:45;;;;;;;10.03;5.87;;;32.10;70.70;;;;;;1994277;70;21099;-74
2021/10/04 10:23:15;;;;;;;8.13;5.42;;;32.10;71.30;;;;;;1967437;72;21107;-74
2021/10/04 10:25:46;;;;;;;6.15;4.85;;;32.00;71.00;;;;;;1909599;73;21100;-77
2021/10/04 10:28:19;;;;;;;7.00;4.45;;;32.00;71.30;;;;;;1969788;71;21064;-78
2021/10/04 10:30:52;;;;;;;6.83;5.10;;;32.00;71.70;;;;;;1982767;71;21496;-84
2021/10/04 10:33:26;;;;;;;6.08;4.50;;;32.00;71.80;;;;;;1938658;74;21183;-81
2021/10/04 10:38:58;;;;;;;9.20;5.83;;;32.00;72.20;;;;;;1812858;77;21167;-81
2021/10/04 10:41:29;;;;;;;7.40;6.10;;;31.90;72.60;;;;;;1801356;78;21582;-83
2021/10/04 10:44:02;;;;;;;9.63;5.70;;;31.80;72.80;;;;;;1794576;78;21573;-83
2021/10/04 10:46:36;;;;;;;7.05;5.78;;;31.80;73.10;;;;;;1799889;79;21229;-82
2021/10/04 10:49:07;;;;;;;9.65;5.47;;;31.80;73.20;;;;;;1856400;76;21075;-82
2021/10/04 10:51:37;;;;;;;7.15;5.65;;;31.80;73.60;;;;;;1852677;77;21121;-84
2021/10/04 10:54:10;;;;;;;7.65;5.92;;;31.80;73.90;;;;;;1853060;76;21118;-84
2021/10/04 10:56:44;;;;;;;8.18;6.12;;;31.70;74.20;;;;;;1851493;77;21157;-84
2021/10/04 10:59:18;;;;;;;;;;;31.80;74.80;;;;;;1855114;76;21079;-84
2021/10/04 11:01:50;;;;;;;10.25;5.65;;;31.70;75.20;;;;;;1853325;77;20173;-84
2021/10/04 11:04:27;;;;;;;7.83;5.70;;;31.60;75.30;;;;;;1828759;77;21093;-85
2021/10/04 11:06:56;;;;;;;8.45;6.50;;;31.60;75.70;;;;;;1776294;79;21289;-84
2021/10/04 11:09:39;;;;;;;9.90;6.95;;;31.60;76.10;;;;;;1858392;76;21097;-84
2021/10/04 11:12:10;;;;;;;12.20;7.10;;;31.60;76.50;;;;;;1857500;77;21216;-84
2021/10/04 11:14:43;;;;;;;8.68;6.65;;;31.60;76.80;;;;;;1855333;76;21145;-85
2021/10/04 11:17:15;;;;;;;11.08;7.37;;;31.60;77.00;;;;;;1997887;71;21089;-84
2021/10/04 11:19:58;;;;;;;11.30;7.17;;;31.50;77.40;;;;;;1960429;72;21152;-86
2021/10/04 11:22:29;;;;;;;11.93;7.25;;;31.50;77.50;;;;;;1969937;72;21079;-83
2021/10/04 11:25:02;;;;;;;11.88;8.80;;;31.40;77.80;;;;;;2011308;71;21057;-86
2021/10/04 11:27:45;;;;;;;13.25;8.73;;;31.40;78.30;;;;;;1995274;71;21623;-86
2021/10/04 11:31:03;;;;;;;13.35;10.08;;;31.40;78.60;;;;;;1971420;71;21184;-87
2021/10/04 11:32:56;;;;;;;12.58;9.65;;;31.30;78.90;;;;;;1934331;72;21572;-88
2021/10/04 11:35:35;;;;;;;18.52;11.65;;;31.30;79.10;;;;;;1943837;71;21116;-86
2021/10/04 11:38:15;;;;;;;12.45;10.30;;;31.30;79.30;;;;;;1943887;73;21541;-85
2021/10/04 11:41:06;;;;;;;14.95;11.90;;;31.30;79.10;;;;;;1928165;71;21564;-85
2021/10/04 11:43:44;;;;;;;19.50;11.83;;;31.20;79.20;;;;;;1974388;71;21073;-86
2021/10/04 11:46:23;;;;;;;14.75;11.38;;;31.20;79.20;;;;;;1977361;71;21204;-85
2021/10/04 11:48:59;;;;;;;19.73;13.50;;;31.20;79.30;;;;;;1825126;77;21142;-86
2021/10/04 11:51:39;;;;;;;21.25;14.23;;;31.20;79.50;;;;;;1831715;78;21247;-87
2021/10/04 11:54:17;;;;;;;21.62;15.08;;;31.10;79.60;;;;;;1879069;75;21165;-86
2021/10/04 11:56:51;;;;;;;19.98;15.13;;;31.10;79.90;;;;;;1906301;73;21083;-85
2021/10/04 11:59:48;;;;;;;19.67;14.30;;;31.10;79.90;;;;;;1896614;73;21613;-86
2021/10/04 12:02:40;;;;;;;16.50;12.53;;;31.10;81.20;;;;;;1837573;76;21134;-86
2021/10/04 12:05:02;;;;;;;16.60;13.00;;;31.10;80.50;;;;;;1828356;76;21095;-85
2021/10/04 12:07:38;;;;;;;18.62;14.23;;;31.10;80.60;;;;;;1823718;77;21088;-85
2021/10/04 12:10:10;;;;;;;21.45;12.90;;;31.00;80.70;;;;;;1844891;76;21167;-85
2021/10/04 12:12:44;;;;;;;19.73;12.80;;;31.00;80.30;;;;;;1875385;75;21565;-85
2021/10/04 12:15:23;;;;;;;20.30;12.98;;;31.00;80.40;;;;;;1875471;75;21071;-84
2021/10/04 12:17:55;;;;;;;13.48;9.15;;;31.00;80.60;;;;;;1874171;75;21637;-84
2021/10/04 12:20:27;;;;;;;14.20;9.88;;;31.00;79.70;;;;;;1842524;76;21156;-85
2021/10/04 12:22:59;;;;;;;14.90;9.50;;;31.00;79.70;;;;;;1839235;78;21273;-85
2021/10/04 12:25:32;;;;;;;11.95;8.73;;;31.00;79.50;;;;;;1843722;75;21140;-84
2021/10/04 12:28:10;;;;;;;13.75;8.43;;;30.90;79.60;;;;;;1940536;74;21154;-84
2021/10/04 12:30:43;;;;;;;11.85;7.70;;;30.90;79.30;;;;;;1881204;74;21553;-85
2021/10/04 12:33:16;;;;;;;10.75;7.97;;;30.90;79.30;;;;;;1873273;76;21147;-85
2021/10/04 12:35:49;;;;;;;12.47;7.37;;;30.90;79.40;;;;;;1891061;75;21103;-85
2021/10/04 12:38:20;;;;;;;13.95;7.75;;;30.80;79.30;;;;;;1940680;74;21131;-86
2021/10/04 12:40:54;;;;;;;14.70;8.58;;;30.80;79.50;;;;;;1973485;72;21062;-86
2021/10/04 12:43:25;;;;;;;13.62;9.30;;;30.80;79.80;;;;;;1934798;72;21084;-85
2021/10/04 12:46:01;;;;;;;15.90;9.25;;;30.80;80.10;;;;;;1964529;72;21056;-85
2021/10/04 12:48:34;;;;;;;11.83;9.10;;;30.80;80.90;;;;;;2013520;71;21037;-86
2021/10/04 12:51:08;;;;;;;14.15;10.08;;;30.80;80.80;;;;;;2014205;71;21049;-85
2021/10/04 12:53:43;;;;;;;14.13;9.95;;;30.70;81.00;;;;;;1968990;72;21089;-86
2021/10/04 12:56:16;;;;;;;16.85;11.43;;;30.70;81.20;;;;;;1960691;71;21119;-86
2021/10/04 12:58:49;;;;;;;16.42;10.50;;;30.60;81.50;;;;;;1987272;72;21062;-86
2021/10/04 13:01:21;;;;;;;16.00;11.00;;;30.60;81.70;;;;;;1982557;72;21118;-86
2021/10/04 13:03:55;;;;;;;15.10;10.32;;;30.60;81.90;;;;;;1988098;72;21064;-86
2021/10/04 13:06:28;;;;;;;15.43;11.33;;;30.60;82.00;;;;;;1987356;71;21118;-86
2021/10/04 13:09:02;;;;;;;15.80;11.38;;;30.50;82.20;;;;;;1987430;72;21110;-86
2021/10/04 13:11:35;;;;;;;14.15;10.85;;;30.60;82.30;;;;;;1976239;72;21202;-86
2021/10/04 13:14:06;;;;;;;26.57;10.13;;;30.50;82.40;;;;;;1942179;72;21656;-91